createdAt,value
2018-04-15T00:00:18.204Z,36.97
2018-04-15T00:02:22.586Z,35.97
2018-04-15T00:04:26.115Z,35.93
2018-04-15T00:06:29.762Z,43.10
2018-04-15T00:08:33.422Z,33.50
2018-04-15T00:10:37.860Z,41.93
2018-04-15T00:12:41.492Z,36.57
2018-04-15T00:14:45.806Z,37.80
2018-04-15T00:16:50.262Z,28.93
2018-04-15T00:18:54.662Z,38.47
2018-04-15T00:20:58.366Z,35.03
2018-04-15T00:23:01.927Z,34.43
2018-04-15T00:25:05.768Z,44.13
2018-04-15T00:27:10.260Z,41.63
2018-04-15T00:29:13.806Z,45.27
2018-04-15T00:31:17.360Z,35.70
2018-04-15T00:33:20.923Z,32.03
2018-04-15T00:35:24.547Z,18.37
2018-04-15T00:37:28.085Z,17.70
2018-04-15T00:39:32.003Z,18.03
2018-04-15T00:41:36.313Z,15.57
2018-04-15T00:43:39.825Z,24.30
2018-04-15T00:45:43.445Z,27.00
2018-04-15T00:47:46.993Z,26.07
2018-04-15T00:49:51.364Z,28.33
2018-04-15T00:51:54.920Z,24.03
2018-04-15T00:54:10.323Z,17.80
2018-04-15T00:56:13.915Z,17.43
2018-04-15T00:58:17.563Z,23.97
2018-04-15T01:00:21.104Z,24.40
2018-04-15T01:02:24.646Z,21.70
2018-04-15T01:04:28.260Z,23.93
2018-04-15T01:06:32.574Z,22.13
2018-04-15T01:08:36.998Z,20.37
2018-04-15T01:10:40.548Z,40.80
2018-04-15T01:12:44.102Z,15.67
2018-04-15T01:14:48.877Z,18.47
2018-04-15T01:16:52.450Z,11.40
2018-04-15T01:18:56.001Z,16.13
2018-04-15T01:20:59.617Z,19.97
2018-04-15T01:23:03.159Z,26.37
2018-04-15T01:25:06.730Z,30.33
2018-04-15T01:27:11.055Z,20.93
2018-04-15T01:29:14.617Z,24.00
2018-04-15T01:31:18.223Z,41.47
2018-04-15T01:33:21.815Z,55.47
2018-04-15T01:35:25.379Z,32.13
2018-04-15T01:37:29.736Z,25.00
2018-04-15T01:39:33.432Z,25.47
2018-04-15T01:41:37.025Z,23.40
2018-04-15T01:43:40.627Z,22.27
2018-04-15T01:45:44.737Z,31.50
2018-04-15T01:47:48.330Z,45.20
2018-04-15T01:49:51.887Z,25.83
2018-04-15T01:51:56.263Z,20.87
2018-04-15T01:54:00.645Z,14.10
2018-04-15T01:56:04.247Z,19.87
2018-04-15T01:58:07.887Z,25.47
2018-04-15T02:00:12.318Z,29.17
2018-04-15T02:02:15.892Z,25.13
2018-04-15T02:04:19.472Z,24.23
2018-04-15T02:06:23.204Z,18.30
2018-04-15T02:08:27.554Z,15.23
2018-04-15T02:10:31.173Z,19.07
2018-04-15T02:12:34.758Z,26.60
2018-04-15T02:14:38.306Z,31.33
2018-04-15T02:16:42.636Z,25.73
2018-04-15T02:18:46.987Z,23.90
2018-04-15T02:20:50.589Z,25.57
2018-04-15T02:22:54.121Z,25.00
2018-04-15T02:24:58.538Z,21.50
2018-04-15T02:27:02.131Z,22.97
2018-04-15T02:29:05.659Z,27.30
2018-04-15T02:31:09.303Z,33.93
2018-04-15T02:33:12.878Z,33.53
2018-04-15T02:35:16.887Z,30.73
2018-04-15T02:37:20.432Z,35.40
2018-04-15T02:39:24.820Z,28.93
2018-04-15T02:41:28.442Z,26.57
2018-04-15T02:43:32.027Z,50.63
2018-04-15T02:45:35.717Z,51.70
2018-04-15T02:47:39.622Z,64.80
2018-04-15T02:49:43.179Z,63.03
2018-04-15T02:51:46.755Z,62.10
2018-04-15T02:53:50.437Z,60.13
2018-04-15T02:55:53.967Z,74.37
2018-04-15T02:57:57.570Z,65.43
2018-04-15T03:00:01.195Z,72.10
2018-04-15T03:02:05.553Z,87.10
2018-04-15T03:04:09.220Z,101.03
2018-04-15T03:06:12.777Z,86.63
2018-04-15T03:08:16.439Z,51.60
2018-04-15T03:10:20.781Z,44.30
2018-04-15T03:12:24.381Z,41.23
2018-04-15T03:14:27.968Z,54.27
2018-04-15T03:16:31.541Z,65.10
2018-04-15T03:18:35.093Z,65.77
2018-04-15T03:20:39.484Z,56.43
2018-04-15T03:22:43.128Z,49.50
2018-04-15T03:24:46.872Z,60.67
2018-04-15T03:26:50.503Z,63.20
2018-04-15T03:28:54.063Z,56.07
2018-04-15T03:30:58.527Z,54.23
2018-04-15T03:33:02.113Z,55.80
2018-04-15T03:35:06.486Z,61.17
2018-04-15T03:37:10.875Z,59.93
2018-04-15T03:39:14.519Z,68.73
2018-04-15T03:41:18.183Z,60.10
2018-04-15T03:43:22.526Z,59.60
2018-04-15T03:45:26.125Z,54.70
2018-04-15T03:47:29.833Z,60.60
2018-04-15T03:49:33.402Z,56.60
2018-04-15T03:51:37.712Z,52.80
2018-04-15T03:53:42.115Z,58.10
2018-04-15T03:55:46.444Z,47.73
2018-04-15T03:57:50.063Z,52.23
2018-04-15T03:59:53.667Z,57.00
2018-04-15T04:01:57.291Z,60.40
2018-04-15T04:04:00.944Z,59.33
2018-04-15T04:06:04.510Z,63.37
2018-04-15T04:08:08.952Z,63.17
2018-04-15T04:10:12.561Z,68.10
2018-04-15T04:12:16.144Z,60.37
2018-04-15T04:14:19.719Z,68.40
2018-04-15T04:16:23.340Z,62.00
2018-04-15T04:18:38.681Z,63.67
2018-04-15T04:20:54.220Z,69.00
2018-04-15T04:23:09.532Z,61.27
2018-04-15T04:25:37.698Z,76.87
2018-04-15T04:27:41.339Z,68.23
2018-04-15T04:29:45.826Z,60.50
2018-04-15T04:31:49.412Z,69.23
2018-04-15T04:33:53.075Z,66.47
2018-04-15T04:35:56.644Z,71.23
2018-04-15T04:38:00.232Z,68.10
2018-04-15T04:40:05.607Z,67.33
2018-04-15T04:42:09.923Z,71.70
2018-04-15T04:44:13.465Z,69.10
2018-04-15T04:46:17.900Z,80.33
2018-04-15T04:48:21.611Z,81.07
2018-04-15T04:50:25.691Z,72.70
2018-04-15T04:52:29.684Z,78.07
2018-04-15T04:54:33.294Z,78.00
2018-04-15T04:56:37.637Z,81.77
2018-04-15T04:58:41.680Z,84.77
2018-04-15T05:00:45.302Z,71.47
2018-04-15T05:02:49.802Z,66.50
2018-04-15T05:04:53.377Z,70.50
2018-04-15T05:06:56.928Z,80.60
2018-04-15T05:09:01.384Z,83.40
2018-04-15T05:11:05.014Z,79.83
2018-04-15T05:13:08.620Z,75.23
2018-04-15T05:15:12.436Z,70.23
2018-04-15T05:17:16.778Z,83.40
2018-04-15T05:19:20.331Z,77.10
2018-04-15T05:21:24.239Z,74.83
2018-04-15T05:23:27.808Z,73.73
2018-04-15T05:25:31.463Z,77.00
2018-04-15T05:27:35.192Z,69.67
2018-04-15T05:29:38.756Z,86.23
2018-04-15T05:31:42.324Z,79.40
2018-04-15T05:33:45.969Z,88.47
2018-04-15T05:35:49.584Z,97.47
2018-04-15T05:37:54.011Z,93.87
2018-04-15T05:39:57.603Z,88.17
2018-04-15T05:42:01.121Z,92.67
2018-04-15T05:44:04.726Z,88.43
2018-04-15T05:46:09.089Z,83.93
2018-04-15T05:48:12.801Z,83.53
2018-04-15T05:50:16.376Z,91.30
2018-04-15T05:52:19.921Z,92.37
2018-04-15T05:54:23.507Z,88.10
2018-04-15T05:56:27.035Z,91.93
2018-04-15T05:58:31.356Z,81.53
2018-04-15T06:00:34.953Z,83.37
2018-04-15T06:02:39.324Z,84.07
2018-04-15T06:04:42.968Z,80.73
2018-04-15T06:06:47.275Z,91.80
2018-04-15T06:08:51.678Z,85.37
2018-04-15T06:10:56.405Z,86.83
2018-04-15T06:13:00.006Z,81.70
2018-04-15T06:15:03.567Z,81.73
2018-04-15T06:17:07.332Z,83.67
2018-04-15T06:19:10.913Z,75.13
2018-04-15T06:21:14.485Z,74.43
2018-04-15T06:23:18.827Z,76.30
2018-04-15T06:25:22.424Z,69.77
2018-04-15T06:27:26.276Z,73.80
2018-04-15T06:29:29.939Z,65.40
2018-04-15T06:31:33.495Z,64.87
2018-04-15T06:33:37.875Z,77.27
2018-04-15T06:35:42.258Z,81.00
2018-04-15T06:37:45.870Z,80.07
2018-04-15T06:39:49.458Z,67.17
2018-04-15T06:41:53.011Z,77.83
2018-04-15T06:43:56.599Z,74.07
2018-04-15T06:46:00.947Z,73.27
2018-04-15T06:48:04.559Z,72.90
2018-04-15T06:50:08.157Z,50.57
2018-04-15T06:52:11.808Z,57.53
2018-04-15T06:54:15.369Z,64.67
2018-04-15T06:56:18.957Z,78.80
2018-04-15T06:58:22.575Z,67.17
2018-04-15T07:00:26.295Z,69.90
2018-04-15T07:02:29.886Z,70.90
2018-04-15T07:04:33.470Z,59.23
2018-04-15T07:06:37.152Z,58.90
2018-04-15T07:08:40.734Z,69.67
2018-04-15T07:10:44.325Z,77.73
2018-04-15T07:12:47.963Z,78.00
2018-04-15T07:14:51.506Z,68.27
2018-04-15T07:16:55.023Z,73.17
2018-04-15T07:18:58.629Z,73.83
2018-04-15T07:21:03.124Z,72.03
2018-04-15T07:23:06.957Z,73.37
2018-04-15T07:25:10.555Z,64.67
2018-04-15T07:27:14.085Z,66.57
2018-04-15T07:29:17.651Z,60.60
2018-04-15T07:31:21.219Z,68.97
2018-04-15T07:33:25.851Z,67.60
2018-04-15T07:35:29.584Z,67.30
2018-04-15T07:37:33.107Z,74.90
2018-04-15T07:39:36.730Z,68.27
2018-04-15T07:41:40.592Z,57.73
2018-04-15T07:43:44.184Z,65.23
2018-04-15T07:45:48.620Z,64.67
2018-04-15T07:47:52.219Z,69.13
2018-04-15T07:49:56.056Z,50.00
2018-04-15T07:51:59.612Z,64.63
2018-04-15T07:54:03.950Z,70.27
2018-04-15T07:56:07.578Z,69.77
2018-04-15T07:58:11.212Z,70.93
2018-04-15T08:00:15.611Z,57.00
2018-04-15T08:02:19.298Z,65.00
2018-04-15T08:04:22.996Z,44.77
2018-04-15T08:06:26.543Z,50.57
2018-04-15T08:08:30.236Z,33.77
2018-04-15T08:10:33.972Z,50.63
2018-04-15T08:12:37.809Z,43.93
2018-04-15T08:14:41.373Z,37.07
2018-04-15T08:16:45.016Z,37.63
2018-04-15T08:18:49.366Z,33.70
2018-04-15T08:20:52.994Z,30.50
2018-04-15T08:22:56.640Z,45.27
2018-04-15T08:25:00.220Z,29.67
2018-04-15T08:27:04.709Z,48.30
2018-04-15T08:29:08.316Z,45.53
2018-04-15T08:31:11.939Z,35.13
2018-04-15T08:33:15.606Z,45.13
2018-04-15T08:35:19.222Z,55.80
2018-04-15T08:37:23.636Z,37.00
2018-04-15T08:39:27.277Z,45.23
2018-04-15T08:41:30.833Z,51.83
2018-04-15T08:43:34.413Z,41.90
2018-04-15T08:45:38.022Z,38.13
2018-04-15T08:47:41.554Z,31.10
2018-04-15T08:49:45.504Z,44.70
2018-04-15T08:51:49.170Z,32.97
2018-04-15T08:53:52.724Z,45.90
2018-04-15T08:55:57.089Z,41.53
2018-04-15T08:58:00.860Z,34.13
2018-04-15T09:00:06.117Z,43.53
2018-04-15T09:02:09.740Z,56.73
2018-04-15T09:04:13.295Z,61.53
2018-04-15T09:06:16.928Z,40.57
2018-04-15T09:08:20.521Z,64.40
2018-04-15T09:10:24.071Z,38.53
2018-04-15T09:12:27.702Z,56.10
2018-04-15T09:14:31.262Z,46.97
2018-04-15T09:16:35.626Z,61.30
2018-04-15T09:18:40.015Z,45.23
2018-04-15T09:20:43.557Z,45.13
2018-04-15T09:22:47.286Z,58.50
2018-04-15T09:24:51.649Z,51.30
2018-04-15T09:26:55.329Z,37.67
2018-04-15T09:28:58.931Z,52.17
2018-04-15T09:31:08.136Z,58.57
2018-04-15T09:33:11.819Z,73.43
2018-04-15T09:35:15.340Z,38.67
2018-04-15T09:37:18.941Z,59.97
2018-04-15T09:39:22.602Z,42.00
2018-04-15T09:41:26.201Z,43.70
2018-04-15T09:43:33.339Z,55.17
2018-04-15T09:45:38.018Z,39.13
2018-04-15T09:47:41.575Z,34.23
2018-04-15T09:49:45.123Z,40.60
2018-04-15T09:51:48.703Z,51.03
2018-04-15T09:53:56.774Z,31.83
2018-04-15T09:56:02.717Z,42.30
2018-04-15T09:58:06.261Z,41.53
2018-04-15T10:00:09.866Z,37.13
2018-04-15T10:02:13.510Z,39.37
2018-04-15T10:04:17.081Z,34.33
2018-04-15T10:06:23.028Z,38.40
2018-04-15T10:08:26.582Z,31.30
2018-04-15T10:10:30.887Z,43.87
2018-04-15T10:12:35.420Z,32.03
2018-04-15T10:14:39.866Z,52.97
2018-04-15T10:16:43.883Z,56.63
2018-04-15T10:18:47.447Z,36.50
2018-04-15T10:20:52.596Z,35.70
2018-04-15T10:22:56.179Z,35.07
2018-04-15T10:25:03.164Z,34.70
2018-04-15T10:27:06.776Z,34.13
2018-04-15T10:29:10.435Z,38.63
2018-04-15T10:31:14.855Z,46.27
2018-04-15T10:33:19.165Z,40.07
2018-04-15T10:35:22.888Z,47.43
2018-04-15T10:37:26.521Z,37.17
2018-04-15T10:39:30.203Z,49.90
2018-04-15T10:41:34.285Z,35.20
2018-04-15T10:43:37.899Z,52.77
2018-04-15T10:45:41.460Z,39.47
2018-04-15T10:47:47.580Z,42.13
2018-04-15T10:49:51.627Z,41.27
2018-04-15T10:51:58.440Z,38.13
2018-04-15T10:54:02.018Z,34.63
2018-04-15T10:56:05.631Z,46.73
2018-04-15T10:58:09.520Z,36.50
2018-04-15T11:00:13.088Z,33.00
2018-04-15T11:02:17.472Z,41.17
2018-04-15T11:04:21.093Z,37.33
2018-04-15T11:06:24.679Z,33.77
2018-04-15T11:08:28.509Z,39.53
2018-04-15T11:10:32.904Z,33.20
2018-04-15T11:12:36.484Z,39.97
2018-04-15T11:14:40.107Z,47.73
2018-04-15T11:16:43.758Z,46.73
2018-04-15T11:18:47.404Z,32.63
2018-04-15T11:20:51.045Z,36.50
2018-04-15T11:22:54.578Z,39.57
2018-04-15T11:24:58.231Z,31.33
2018-04-15T11:27:01.776Z,38.00
2018-04-15T11:29:05.413Z,31.83
2018-04-15T11:31:09.194Z,25.93
2018-04-15T11:33:13.525Z,35.67
2018-04-15T11:35:17.106Z,34.43
2018-04-15T11:37:20.665Z,29.20
2018-04-15T11:39:24.175Z,27.47
2018-04-15T11:41:27.767Z,31.33
2018-04-15T11:43:31.326Z,39.13
2018-04-15T11:45:34.890Z,30.67
2018-04-15T11:47:39.216Z,27.00
2018-04-15T11:49:42.850Z,26.97
2018-04-15T11:51:46.456Z,24.73
2018-04-15T11:53:50.243Z,27.50
2018-04-15T11:55:53.820Z,25.00
2018-04-15T11:57:57.369Z,28.00
2018-04-15T12:00:01.774Z,39.00
2018-04-15T12:02:05.411Z,29.70
2018-04-15T12:04:08.980Z,40.33
2018-04-15T12:06:12.588Z,24.93
2018-04-15T12:08:16.943Z,24.03
2018-04-15T12:10:20.575Z,26.07
2018-04-15T12:12:24.205Z,24.37
2018-04-15T12:14:28.592Z,25.70
2018-04-15T12:16:33.581Z,25.30
2018-04-15T12:18:37.151Z,22.93
2018-04-15T12:20:42.144Z,22.57
2018-04-15T12:22:46.080Z,22.20
2018-04-15T12:24:49.824Z,21.97
2018-04-15T12:26:56.595Z,28.33
2018-04-15T12:29:03.522Z,24.27
2018-04-15T12:31:07.879Z,18.70
2018-04-15T12:33:11.468Z,22.73
2018-04-15T12:35:15.426Z,21.13
2018-04-15T12:37:21.082Z,27.83
2018-04-15T12:39:25.380Z,26.37
2018-04-15T12:41:29.632Z,20.77
2018-04-15T12:43:34.903Z,23.97
2018-04-15T12:45:38.465Z,18.97
2018-04-15T12:47:42.863Z,19.80
2018-04-15T12:49:47.175Z,19.57
2018-04-15T12:51:51.580Z,26.50
2018-04-15T12:53:55.945Z,18.57
2018-04-15T12:55:59.572Z,18.43
2018-04-15T12:58:03.170Z,18.13
2018-04-15T13:00:06.764Z,20.73
2018-04-15T13:02:11.139Z,16.73
2018-04-15T13:04:14.882Z,24.03
2018-04-15T13:06:18.430Z,19.33
2018-04-15T13:08:22.058Z,17.70
2018-04-15T13:10:25.681Z,19.77
2018-04-15T13:12:30.041Z,21.90
2018-04-15T13:14:33.603Z,17.37
2018-04-15T13:16:37.951Z,18.23
2018-04-15T13:18:41.490Z,17.70
2018-04-15T13:20:45.097Z,16.70
2018-04-15T13:22:48.686Z,17.33
2018-04-15T13:24:52.226Z,16.87
2018-04-15T13:26:55.912Z,16.07
2018-04-15T13:28:59.503Z,17.00
2018-04-15T13:31:03.787Z,18.90
2018-04-15T13:33:07.393Z,15.77
2018-04-15T13:35:10.920Z,16.97
2018-04-15T13:37:14.715Z,16.17
2018-04-15T13:39:19.075Z,15.13
2018-04-15T13:41:23.436Z,14.87
2018-04-15T13:43:27.548Z,13.83
2018-04-15T13:45:31.150Z,16.33
2018-04-15T13:47:36.293Z,14.30
2018-04-15T13:49:40.140Z,14.77
2018-04-15T13:51:43.822Z,13.57
2018-04-15T13:53:47.390Z,12.50
2018-04-15T13:55:53.448Z,18.83
2018-04-15T13:57:57.060Z,15.70
2018-04-15T14:00:01.900Z,19.27
2018-04-15T14:02:05.485Z,12.20
2018-04-15T14:04:09.203Z,12.80
2018-04-15T14:06:12.792Z,11.87
2018-04-15T14:08:17.811Z,13.37
2018-04-15T14:10:21.564Z,13.57
2018-04-15T14:12:25.145Z,14.33
2018-04-15T14:14:28.696Z,15.60
2018-04-15T14:16:34.272Z,10.63
2018-04-15T14:18:38.624Z,12.90
2018-04-15T14:20:42.121Z,14.40
2018-04-15T14:22:45.711Z,14.77
2018-04-15T14:24:50.082Z,12.03
2018-04-15T14:26:53.680Z,13.33
2018-04-15T14:28:58.047Z,14.00
2018-04-15T14:31:01.827Z,12.43
2018-04-15T14:33:05.358Z,12.07
2018-04-15T14:35:08.941Z,13.33
2018-04-15T14:37:14.646Z,16.23
2018-04-15T14:39:18.976Z,13.90
2018-04-15T14:41:23.458Z,17.37
2018-04-15T14:43:28.111Z,12.17
2018-04-15T14:45:31.717Z,24.50
2018-04-15T14:47:35.681Z,20.67
2018-04-15T14:49:39.260Z,15.17
2018-04-15T14:51:42.867Z,22.60
2018-04-15T14:53:47.287Z,13.97
2018-04-15T14:55:55.021Z,15.70
2018-04-15T14:57:59.992Z,15.63
2018-04-15T15:00:05.873Z,12.40
2018-04-15T15:02:10.320Z,11.63
2018-04-15T15:04:14.837Z,16.83
2018-04-15T15:06:18.397Z,13.17
2018-04-15T15:08:21.976Z,16.70
2018-04-15T15:10:27.106Z,17.83
2018-04-15T15:12:30.649Z,14.27
2018-04-15T15:14:34.283Z,17.67
2018-04-15T15:16:37.916Z,16.83
2018-04-15T15:18:42.238Z,15.23
2018-04-15T15:20:45.783Z,19.00
2018-04-15T15:22:49.379Z,17.60
2018-04-15T15:24:53.170Z,16.10
2018-04-15T15:26:56.841Z,15.23
2018-04-15T15:29:00.346Z,12.57
2018-04-15T15:31:03.916Z,12.60
2018-04-15T15:33:07.953Z,10.53
2018-04-15T15:35:12.012Z,11.40
2018-04-15T15:37:16.321Z,11.97
2018-04-15T15:39:20.687Z,12.40
2018-04-15T15:41:25.007Z,10.90
2018-04-15T15:43:28.635Z,9.60
2018-04-15T15:45:32.246Z,10.90
2018-04-15T15:47:36.532Z,10.60
2018-04-15T15:49:40.044Z,11.70
2018-04-15T15:51:44.335Z,10.80
2018-04-15T15:53:47.940Z,11.47
2018-04-15T15:55:51.515Z,10.20
2018-04-15T15:57:55.041Z,12.43
2018-04-15T15:59:58.645Z,10.03
2018-04-15T16:02:02.213Z,9.97
2018-04-15T16:04:05.732Z,11.60
2018-04-15T16:06:09.330Z,10.67
2018-04-15T16:08:13.624Z,13.20
2018-04-15T16:10:17.616Z,14.10
2018-04-15T16:12:21.175Z,13.90
2018-04-15T16:14:24.753Z,14.67
2018-04-15T16:16:29.314Z,12.80
2018-04-15T16:18:33.066Z,15.57
2018-04-15T16:20:37.368Z,13.43
2018-04-15T16:22:40.983Z,10.53
2018-04-15T16:24:45.323Z,14.00
2018-04-15T16:26:48.886Z,11.73
2018-04-15T16:28:53.257Z,9.83
2018-04-15T16:30:56.829Z,11.43
2018-04-15T16:33:00.368Z,10.70
2018-04-15T16:35:03.934Z,11.33
2018-04-15T16:37:07.484Z,10.77
2018-04-15T16:39:11.837Z,11.20
2018-04-15T16:41:15.424Z,10.47
2018-04-15T16:43:19.754Z,9.73
2018-04-15T16:45:23.280Z,10.73
2018-04-15T16:47:26.881Z,10.90
2018-04-15T16:49:30.486Z,10.27
2018-04-15T16:51:34.051Z,12.00
2018-04-15T16:53:37.615Z,12.30
2018-04-15T16:55:41.250Z,13.50
2018-04-15T16:57:44.924Z,13.73
2018-04-15T16:59:48.522Z,14.87
2018-04-15T17:01:52.172Z,11.73
2018-04-15T17:03:55.678Z,10.47
2018-04-15T17:06:00.355Z,15.17
2018-04-15T17:08:03.960Z,13.77
2018-04-15T17:10:07.539Z,18.63
2018-04-15T17:12:11.524Z,19.97
2018-04-15T17:14:15.040Z,17.13
2018-04-15T17:16:18.558Z,18.10
2018-04-15T17:18:22.125Z,20.53
2018-04-15T17:20:25.727Z,18.50
2018-04-15T17:22:29.305Z,15.10
2018-04-15T17:24:32.867Z,14.90
2018-04-15T17:26:37.347Z,16.07
2018-04-15T17:28:40.878Z,15.10
2018-04-15T17:30:44.488Z,19.67
2018-04-15T17:32:48.027Z,18.43
2018-04-15T17:34:51.535Z,21.77
2018-04-15T17:36:55.168Z,19.17
2018-04-15T17:38:59.521Z,17.83
2018-04-15T17:41:03.045Z,19.03
2018-04-15T17:43:06.912Z,19.17
2018-04-15T17:45:10.466Z,19.53
2018-04-15T17:47:14.770Z,21.33
2018-04-15T17:49:18.381Z,20.10
2018-04-15T17:51:22.647Z,21.97
2018-04-15T17:53:26.968Z,22.03
2018-04-15T17:55:30.546Z,23.87
2018-04-15T17:57:34.132Z,23.03
2018-04-15T17:59:37.697Z,21.10
2018-04-15T18:01:41.996Z,21.33
2018-04-15T18:03:45.559Z,21.23
2018-04-15T18:05:49.174Z,18.93
2018-04-15T18:07:53.064Z,23.07
2018-04-15T18:09:56.632Z,25.90
2018-04-15T18:12:00.149Z,25.33
2018-04-15T18:14:03.747Z,24.67
2018-04-15T18:16:07.287Z,23.37
2018-04-15T18:18:11.608Z,22.13
2018-04-15T18:20:16.047Z,24.60
2018-04-15T18:22:20.074Z,24.47
2018-04-15T18:24:23.616Z,24.00
2018-04-15T18:26:27.170Z,21.47
2018-04-15T18:28:30.686Z,30.97
2018-04-15T18:30:34.613Z,24.93
2018-04-15T18:32:38.952Z,26.87
2018-04-15T18:34:42.476Z,25.27
2018-04-15T18:36:46.071Z,26.60
2018-04-15T18:38:49.602Z,27.03
2018-04-15T18:40:53.197Z,27.37
2018-04-15T18:42:56.773Z,22.93
2018-04-15T18:45:00.762Z,20.67
2018-04-15T18:47:04.302Z,28.93
2018-04-15T18:49:08.623Z,24.33
2018-04-15T18:51:12.163Z,28.40
2018-04-15T18:53:15.736Z,24.63
2018-04-15T18:55:19.332Z,28.13
2018-04-15T18:57:22.944Z,25.13
2018-04-15T18:59:26.460Z,26.10
2018-04-15T19:01:30.823Z,23.67
2018-04-15T19:03:34.599Z,26.10
2018-04-15T19:05:38.108Z,23.37
2018-04-15T19:07:42.593Z,26.23
2018-04-15T19:09:46.124Z,25.67
2018-04-15T19:11:50.380Z,25.53
2018-04-15T19:13:54.061Z,25.37
2018-04-15T19:15:57.806Z,27.33
2018-04-15T19:18:01.339Z,26.30
2018-04-15T19:20:06.461Z,30.27
2018-04-15T19:22:10.078Z,28.37
2018-04-15T19:24:14.396Z,28.33
2018-04-15T19:26:17.893Z,26.83
2018-04-15T19:28:21.453Z,26.80
2018-04-15T19:30:25.036Z,28.90
2018-04-15T19:32:28.584Z,28.17
2018-04-15T19:34:32.543Z,25.50
2018-04-15T19:36:36.104Z,23.33
2018-04-15T19:38:39.614Z,25.27
2018-04-15T19:40:43.942Z,27.83
2018-04-15T19:42:47.510Z,25.97
2018-04-15T19:44:51.111Z,30.00
2018-04-15T19:46:54.648Z,37.63
2018-04-15T19:48:58.332Z,29.23
2018-04-15T19:51:01.979Z,27.47
2018-04-15T19:53:05.622Z,29.17
2018-04-15T19:55:09.206Z,32.70
2018-04-15T19:57:12.781Z,30.17
2018-04-15T19:59:16.326Z,30.00
2018-04-15T20:01:19.891Z,31.47
2018-04-15T20:03:23.448Z,29.53
2018-04-15T20:05:27.053Z,34.27
2018-04-15T20:07:30.590Z,33.23
2018-04-15T20:09:34.076Z,29.13
2018-04-15T20:11:37.654Z,26.80
2018-04-15T20:13:41.301Z,27.80
2018-04-15T20:15:44.802Z,29.40
2018-04-15T20:17:48.328Z,33.03
2018-04-15T20:19:52.315Z,32.87
2018-04-15T20:21:56.640Z,31.37
2018-04-15T20:24:00.987Z,29.07
2018-04-15T20:26:04.628Z,34.93
2018-04-15T20:28:08.196Z,35.80
2018-04-15T20:30:11.739Z,33.30
2018-04-15T20:32:15.268Z,33.53
2018-04-15T20:34:18.956Z,29.17
2018-04-15T20:36:22.498Z,33.60
2018-04-15T20:38:31.023Z,35.13
2018-04-15T20:40:35.230Z,31.97
2018-04-15T20:42:42.515Z,31.63
2018-04-15T20:44:46.102Z,34.10
2018-04-15T20:46:49.652Z,32.50
2018-04-15T20:48:53.488Z,32.97
2018-04-15T20:50:57.484Z,33.30
2018-04-15T20:53:04.963Z,33.97
2018-04-15T20:55:10.920Z,33.30
2018-04-15T20:57:15.179Z,34.00
2018-04-15T20:59:19.992Z,35.17
2018-04-15T21:01:25.216Z,37.97
2018-04-15T21:03:28.828Z,29.90
2018-04-15T21:05:35.622Z,27.77
2018-04-15T21:07:39.177Z,36.07
2018-04-15T21:09:42.783Z,33.13
2018-04-15T21:11:47.675Z,34.37
2018-04-15T21:13:54.003Z,33.87
2018-04-15T21:16:02.222Z,34.67
2018-04-15T21:18:05.921Z,36.33
2018-04-15T21:20:10.268Z,31.53
2018-04-15T21:22:13.807Z,33.80
2018-04-15T21:24:17.447Z,31.60
2018-04-15T21:26:23.160Z,35.63
2018-04-15T21:28:26.688Z,33.33
2018-04-15T21:30:30.192Z,31.13
2018-04-15T21:32:34.958Z,31.93
2018-04-15T21:34:39.737Z,33.47
2018-04-15T21:36:43.251Z,30.57
2018-04-15T21:38:50.504Z,35.40
2018-04-15T21:40:55.773Z,34.60
2018-04-15T21:42:59.348Z,33.37
2018-04-15T21:45:03.595Z,34.47
2018-04-15T21:47:07.100Z,33.77
2018-04-15T21:49:10.756Z,37.43
2018-04-15T21:51:14.354Z,34.00
2018-04-15T21:53:17.949Z,31.23
2018-04-15T21:55:22.053Z,29.57
2018-04-15T21:57:26.532Z,33.60
2018-04-15T21:59:30.065Z,37.17
2018-04-15T22:01:33.589Z,30.97
2018-04-15T22:03:37.143Z,29.93
2018-04-15T22:05:40.754Z,27.00
2018-04-15T22:07:44.360Z,27.37
2018-04-15T22:09:47.986Z,33.37
2018-04-15T22:12:03.375Z,27.30
2018-04-15T22:14:06.921Z,26.60
2018-04-15T22:16:11.366Z,27.37
2018-04-15T22:18:14.918Z,25.43
2018-04-15T22:20:18.855Z,22.80
2018-04-15T22:22:22.736Z,31.07
2018-04-15T22:24:27.298Z,31.20
2018-04-15T22:26:33.103Z,24.83
2018-04-15T22:28:36.748Z,27.00
2018-04-15T22:30:41.012Z,26.53
2018-04-15T22:32:44.559Z,30.70
2018-04-15T22:34:48.167Z,27.47
2018-04-15T22:36:51.825Z,22.07
2018-04-15T22:38:55.408Z,27.77
2018-04-15T22:41:04.794Z,25.80
2018-04-15T22:43:11.212Z,26.50
2018-04-15T22:45:18.555Z,22.97
2018-04-15T22:47:22.267Z,23.30
2018-04-15T22:49:28.709Z,19.27
2018-04-15T22:51:36.504Z,28.90
2018-04-15T22:53:43.960Z,28.77
2018-04-15T22:55:51.807Z,32.63
2018-04-15T22:57:58.574Z,28.10
2018-04-15T23:00:04.326Z,33.67
2018-04-15T23:02:07.649Z,29.47
2018-04-15T23:04:13.216Z,34.20
2018-04-15T23:06:20.126Z,29.77
2018-04-15T23:08:24.817Z,33.83
2018-04-15T23:10:34.850Z,34.10
2018-04-15T23:12:42.810Z,34.23
2018-04-15T23:14:49.122Z,36.90
2018-04-15T23:16:56.232Z,28.20
2018-04-15T23:19:05.247Z,34.63
2018-04-15T23:21:12.585Z,33.77
2018-04-15T23:23:16.339Z,34.27
2018-04-15T23:25:19.897Z,34.73
2018-04-15T23:27:26.515Z,38.07
2018-04-15T23:29:32.676Z,41.13
2018-04-15T23:31:41.470Z,25.33
2018-04-15T23:33:48.413Z,33.27
2018-04-15T23:35:54.595Z,36.57
2018-04-15T23:38:02.553Z,38.90
2018-04-15T23:40:08.152Z,38.23
2018-04-15T23:42:12.121Z,35.77
2018-04-15T23:44:20.358Z,41.27
2018-04-15T23:46:27.247Z,36.70
2018-04-15T23:48:31.987Z,36.60
2018-04-15T23:50:41.034Z,38.27
2018-04-15T23:52:45.329Z,37.33
2018-04-15T23:54:51.977Z,37.23
2018-04-15T23:56:56.950Z,36.13
2018-04-15T23:59:02.020Z,38.63
